createdAt,value
2023-09-05T00:02:18.767Z,95880.40
2023-09-05T00:04:46.184Z,95872.60
2023-09-05T00:07:13.176Z,95874.40
2023-09-05T00:09:39.891Z,95875.20
2023-09-05T00:12:08.263Z,95873.00
2023-09-05T00:14:37.540Z,95869.80
2023-09-05T00:17:04.812Z,95869.00
2023-09-05T00:19:31.453Z,95865.60
2023-09-05T00:21:58.250Z,95865.00
2023-09-05T00:24:36.372Z,95867.40
2023-09-05T00:27:06.771Z,95857.20
2023-09-05T00:29:33.502Z,95854.20
2023-09-05T00:32:01.416Z,95855.40
2023-09-05T00:34:38.406Z,95856.40
2023-09-05T00:37:10.570Z,95854.60
2023-09-05T00:39:41.282Z,95850.40
2023-09-05T00:42:13.997Z,95851.80
2023-09-05T00:44:42.661Z,95852.40
2023-09-05T00:47:12.697Z,95851.40
2023-09-05T00:49:42.884Z,95856.20
2023-09-05T00:52:11.914Z,95851.60
2023-09-05T00:54:38.850Z,95848.80
2023-09-05T00:57:06.660Z,95852.60
2023-09-05T00:59:33.441Z,95854.40
2023-09-05T01:02:00.149Z,95853.80
2023-09-05T01:04:27.359Z,95853.00
2023-09-05T01:07:07.921Z,95860.20
2023-09-05T01:09:55.272Z,95856.00
2023-09-05T01:12:24.360Z,95851.60
2023-09-05T01:14:51.187Z,95847.60
2023-09-05T01:17:17.945Z,95842.80
2023-09-05T01:19:46.018Z,95839.40
2023-09-05T01:22:37.112Z,95838.20
2023-09-05T01:25:04.866Z,95842.20
2023-09-05T01:27:31.869Z,95840.40
2023-09-05T01:29:59.557Z,95839.80
2023-09-05T01:32:28.114Z,95837.40
2023-09-05T01:34:55.410Z,95837.40
2023-09-05T01:37:23.139Z,95836.80
2023-09-05T01:39:49.895Z,95828.60
2023-09-05T01:42:16.522Z,95825.40
2023-09-05T01:44:43.343Z,95819.60
2023-09-05T01:47:10.450Z,95818.00
2023-09-05T01:49:37.413Z,95818.20
2023-09-05T01:52:04.385Z,95821.20
2023-09-05T01:54:31.025Z,95820.00
2023-09-05T01:56:57.748Z,95824.20
2023-09-05T01:59:24.539Z,95820.40
2023-09-05T02:01:51.406Z,95823.80
2023-09-05T02:04:18.146Z,95821.80
2023-09-05T02:06:44.821Z,95821.60
2023-09-05T02:09:11.617Z,95821.80
2023-09-05T02:11:38.268Z,95821.60
2023-09-05T02:14:05.175Z,95826.00
2023-09-05T02:16:32.267Z,95825.80
2023-09-05T02:18:59.131Z,95826.60
2023-09-05T02:21:25.823Z,95829.40
2023-09-05T02:23:52.516Z,95829.80
2023-09-05T02:26:19.187Z,95829.20
2023-09-05T02:28:46.175Z,95831.00
2023-09-05T02:31:13.374Z,95832.80
2023-09-05T02:33:40.170Z,95828.80
2023-09-05T02:36:19.949Z,95826.20
2023-09-05T02:38:47.288Z,95823.20
2023-09-05T02:41:16.193Z,95825.20
2023-09-05T02:43:44.131Z,95822.00
2023-09-05T02:46:11.293Z,95823.00
2023-09-05T02:48:43.234Z,95824.80
2023-09-05T02:51:12.655Z,95820.80
2023-09-05T02:53:39.778Z,95822.00
2023-09-05T02:56:06.882Z,95824.80
2023-09-05T02:58:35.281Z,95823.60
2023-09-05T03:01:08.401Z,95823.80
2023-09-05T03:03:35.345Z,95820.00
2023-09-05T03:06:12.709Z,95821.60
2023-09-05T03:08:43.002Z,95821.00
2023-09-05T03:11:10.243Z,95823.40
2023-09-05T03:13:37.160Z,95826.80
2023-09-05T03:16:04.320Z,95824.80
2023-09-05T03:18:31.392Z,95822.60
2023-09-05T03:20:59.494Z,95823.20
2023-09-05T03:23:26.540Z,95827.20
2023-09-05T03:25:54.066Z,95828.20
2023-09-05T03:28:21.525Z,95828.40
2023-09-05T03:30:48.191Z,95828.60
2023-09-05T03:33:15.267Z,95824.60
2023-09-05T03:35:44.121Z,95822.40
2023-09-05T03:38:10.927Z,95827.60
2023-09-05T03:40:37.632Z,95826.00
2023-09-05T03:43:04.577Z,95828.20
2023-09-05T03:45:32.125Z,95831.60
2023-09-05T03:48:01.951Z,95829.20
2023-09-05T03:50:30.477Z,95828.60
2023-09-05T03:52:58.319Z,95826.00
2023-09-05T03:55:25.548Z,95829.20
2023-09-05T03:57:52.645Z,95827.20
2023-09-05T04:00:20.035Z,95829.00
2023-09-05T04:02:49.263Z,95833.00
2023-09-05T04:05:17.667Z,95830.60
2023-09-05T04:07:44.358Z,95829.80
2023-09-05T04:10:11.858Z,95831.20
2023-09-05T04:12:38.674Z,95830.00
2023-09-05T04:15:06.375Z,95828.00
2023-09-05T04:17:34.293Z,95830.80
2023-09-05T04:20:02.519Z,95831.60
2023-09-05T04:22:30.391Z,95833.00
2023-09-05T04:24:58.061Z,95830.80
2023-09-05T04:27:25.292Z,95831.00
2023-09-05T04:29:55.807Z,95838.40
2023-09-05T04:32:32.286Z,95836.40
2023-09-05T04:35:04.499Z,95842.00
2023-09-05T04:37:31.239Z,95836.40
2023-09-05T04:40:02.107Z,95840.80
2023-09-05T04:42:29.051Z,95844.20
2023-09-05T04:44:55.720Z,95845.00
2023-09-05T04:47:25.101Z,95847.00
2023-09-05T04:49:59.096Z,95845.80
2023-09-05T04:52:29.544Z,95845.80
2023-09-05T04:55:00.974Z,95851.00
2023-09-05T04:57:28.972Z,95854.20
2023-09-05T05:00:01.501Z,95851.60
2023-09-05T05:02:29.359Z,95850.20
2023-09-05T05:04:56.321Z,95853.00
2023-09-05T05:07:23.199Z,95848.80
2023-09-05T05:09:50.080Z,95858.20
2023-09-05T05:12:17.454Z,95854.80
2023-09-05T05:14:44.290Z,95854.00
2023-09-05T05:17:14.484Z,95855.20
2023-09-05T05:19:42.016Z,95855.20
2023-09-05T05:22:08.931Z,95854.60
2023-09-05T05:24:35.697Z,95857.40
2023-09-05T05:27:02.372Z,95857.40
2023-09-05T05:29:33.432Z,95856.20
2023-09-05T05:32:02.402Z,95862.40
2023-09-05T05:34:31.356Z,95860.60
2023-09-05T05:36:58.527Z,95856.40
2023-09-05T05:39:26.747Z,95854.40
2023-09-05T05:41:54.013Z,95853.20
2023-09-05T05:44:22.711Z,95855.80
2023-09-05T05:46:49.539Z,95857.80
2023-09-05T05:49:16.194Z,95855.80
2023-09-05T05:51:42.945Z,95856.80
2023-09-05T05:54:09.771Z,95859.80
2023-09-05T05:56:36.566Z,95860.00
2023-09-05T05:59:03.643Z,95862.60
2023-09-05T06:01:31.451Z,95868.60
2023-09-05T06:03:58.236Z,95869.60
2023-09-05T06:06:25.021Z,95872.20
2023-09-05T06:08:51.825Z,95873.00
2023-09-05T06:11:18.560Z,95876.80
2023-09-05T06:13:45.121Z,95877.60
2023-09-05T06:16:11.897Z,95884.40
2023-09-05T06:18:38.614Z,95879.80
2023-09-05T06:21:05.312Z,95867.00
2023-09-05T06:23:33.816Z,95854.60
2023-09-05T06:26:01.015Z,95848.40
2023-09-05T06:28:27.966Z,95841.00
2023-09-05T06:31:00.258Z,95838.20
2023-09-05T06:33:29.590Z,95834.00
2023-09-05T06:35:56.416Z,95832.40
2023-09-05T06:38:24.826Z,95844.20
2023-09-05T06:40:51.884Z,95846.80
2023-09-05T06:43:18.602Z,95848.40
2023-09-05T06:45:45.331Z,95844.80
2023-09-05T06:48:12.054Z,95849.80
2023-09-05T06:50:38.859Z,95853.20
2023-09-05T06:53:05.542Z,95855.20
2023-09-05T06:55:35.886Z,95850.60
2023-09-05T06:58:02.656Z,95848.40
2023-09-05T07:00:29.322Z,95853.00
2023-09-05T07:02:56.084Z,95855.40
2023-09-05T07:05:23.040Z,95850.20
2023-09-05T07:07:49.751Z,95858.60
2023-09-05T07:10:16.653Z,95855.80
2023-09-05T07:12:43.449Z,95857.00
2023-09-05T07:15:10.505Z,95860.00
2023-09-05T07:17:37.191Z,95857.40
2023-09-05T07:20:04.470Z,95865.60
2023-09-05T07:22:31.014Z,95865.00
2023-09-05T07:24:57.645Z,95862.00
2023-09-05T07:27:24.284Z,95864.40
2023-09-05T07:29:51.326Z,95866.00
2023-09-05T07:32:18.119Z,95868.80
2023-09-05T07:34:44.825Z,95866.00
2023-09-05T07:37:12.245Z,95862.80
2023-09-05T07:39:39.821Z,95859.80
2023-09-05T07:42:06.512Z,95857.40
2023-09-05T07:44:33.166Z,95858.20
2023-09-05T07:46:59.814Z,95858.80
2023-09-05T07:49:27.549Z,95862.00
2023-09-05T07:51:55.819Z,95861.20
2023-09-05T07:54:27.073Z,95854.00
2023-09-05T07:56:53.773Z,95859.00
2023-09-05T07:59:20.747Z,95853.60
2023-09-05T08:01:47.439Z,95848.40
2023-09-05T08:04:14.115Z,95837.60
2023-09-05T08:06:43.289Z,95826.80
2023-09-05T08:09:10.455Z,95829.20
2023-09-05T08:11:37.122Z,95829.40
2023-09-05T08:14:03.783Z,95825.00
2023-09-05T08:16:30.680Z,95828.00
2023-09-05T08:18:57.373Z,95826.80
2023-09-05T08:21:24.039Z,95824.60
2023-09-05T08:23:51.484Z,95829.20
2023-09-05T08:26:18.175Z,95830.80
2023-09-05T08:28:47.120Z,95828.40
2023-09-05T08:31:18.867Z,95832.60
2023-09-05T08:33:46.288Z,95830.40
2023-09-05T08:36:12.871Z,95835.40
2023-09-05T08:38:39.536Z,95829.60
2023-09-05T08:41:08.447Z,95830.40
2023-09-05T08:43:36.322Z,95830.60
2023-09-05T08:46:04.102Z,95830.00
2023-09-05T08:51:06.904Z,95828.00
2023-09-05T08:53:42.497Z,95832.60
2023-09-05T08:56:09.660Z,95827.40
2023-09-05T08:58:38.077Z,95831.00
2023-09-05T09:01:04.789Z,95836.00
2023-09-05T09:03:32.589Z,95830.60
2023-09-05T09:05:59.363Z,95824.40
2023-09-05T09:08:26.336Z,95827.20
2023-09-05T09:11:10.320Z,95819.00
2023-09-05T09:13:41.861Z,95823.60
2023-09-05T09:16:08.562Z,95825.40
2023-09-05T09:18:35.702Z,95824.80
2023-09-05T09:21:06.512Z,95825.20
2023-09-05T09:23:34.710Z,95821.60
2023-09-05T09:26:03.736Z,95821.80
2023-09-05T09:28:33.468Z,95820.80
2023-09-05T09:31:12.242Z,95823.60
2023-09-05T09:33:40.619Z,95823.00
2023-09-05T09:36:12.905Z,95825.40
2023-09-05T09:38:40.886Z,95822.00
2023-09-05T09:41:08.642Z,95818.20
2023-09-05T09:43:39.175Z,95820.20
2023-09-05T09:46:09.690Z,95816.80
2023-09-05T09:48:37.788Z,95811.20
2023-09-05T09:51:08.107Z,95818.40
2023-09-05T09:53:41.104Z,95815.60
2023-09-05T09:56:14.650Z,95808.40
2023-09-05T09:58:45.845Z,95810.00
2023-09-05T10:01:14.989Z,95803.60
2023-09-05T10:03:45.500Z,95807.80
2023-09-05T10:06:12.717Z,95803.40
2023-09-05T10:08:46.400Z,95807.60
2023-09-05T10:11:16.102Z,95810.60
2023-09-05T10:13:44.193Z,95807.60
2023-09-05T10:16:13.864Z,95801.80
2023-09-05T10:18:45.263Z,95806.60
2023-09-05T10:21:13.533Z,95808.80
2023-09-05T10:23:40.975Z,95806.80
2023-09-05T10:26:10.376Z,95803.40
2023-09-05T10:28:38.254Z,95808.80
2023-09-05T10:31:17.167Z,95804.60
2023-09-05T10:33:46.768Z,95802.00
2023-09-05T10:36:41.106Z,95801.00
2023-09-05T10:39:26.647Z,95791.20
2023-09-05T10:41:54.537Z,95788.40
2023-09-05T10:44:25.190Z,95791.20
2023-09-05T10:46:55.757Z,95791.00
2023-09-05T10:49:23.887Z,95788.00
2023-09-05T10:52:20.682Z,95779.20
2023-09-05T10:54:47.729Z,95788.20
2023-09-05T10:57:40.398Z,95789.00
2023-09-05T11:00:31.160Z,95790.40
2023-09-05T11:03:12.948Z,95786.60
2023-09-05T11:05:46.897Z,95780.60
2023-09-05T11:08:24.121Z,95778.00
2023-09-05T11:10:56.460Z,95772.60
2023-09-05T11:13:23.313Z,95779.40
2023-09-05T11:15:59.715Z,95773.20
2023-09-05T11:18:27.055Z,95766.60
2023-09-05T11:20:54.906Z,95762.40
2023-09-05T11:23:26.903Z,95761.00
2023-09-05T11:25:57.302Z,95752.20
2023-09-05T11:28:25.752Z,95754.40
2023-09-05T11:30:58.612Z,95758.00
2023-09-05T11:33:28.290Z,95749.20
2023-09-05T11:35:55.244Z,95747.00
2023-09-05T11:38:24.360Z,95745.20
2023-09-05T11:40:57.059Z,95743.40
2023-09-05T11:43:25.326Z,95733.40
2023-09-05T11:45:58.579Z,95732.60
2023-09-05T11:48:32.938Z,95728.80
2023-09-05T11:51:00.084Z,95726.80
2023-09-05T11:53:27.522Z,95726.60
2023-09-05T11:55:54.289Z,95722.60
2023-09-05T11:58:20.995Z,95724.80
2023-09-05T12:00:52.401Z,95720.20
2023-09-05T12:03:19.418Z,95717.20
2023-09-05T12:05:53.367Z,95717.20
2023-09-05T12:13:41.288Z,95717.00
2023-09-05T12:16:11.214Z,95707.40
2023-09-05T12:18:44.155Z,95708.20
2023-09-05T12:21:13.107Z,95705.40
2023-09-05T12:23:39.915Z,95706.20
2023-09-05T12:26:07.495Z,95702.20
2023-09-05T12:28:35.835Z,95701.00
2023-09-05T12:31:12.091Z,95696.40
2023-09-05T12:33:41.525Z,95697.80
2023-09-05T12:36:08.204Z,95692.00
2023-09-05T12:38:34.984Z,95687.60
2023-09-05T12:41:03.083Z,95685.20
2023-09-05T12:43:29.727Z,95675.00
2023-09-05T12:45:56.377Z,95670.60
2023-09-05T12:48:23.189Z,95668.00
2023-09-05T12:50:51.179Z,95666.60
2023-09-05T12:53:20.560Z,95661.40
2023-09-05T12:55:49.250Z,95655.20
2023-09-05T12:58:15.935Z,95657.00
2023-09-05T13:00:44.518Z,95650.80
2023-09-05T13:03:13.021Z,95647.00
2023-09-05T13:05:41.727Z,95639.60
2023-09-05T13:08:11.344Z,95643.00
2023-09-05T13:10:39.203Z,95643.60
2023-09-05T13:13:08.221Z,95647.60
2023-09-05T13:15:35.579Z,95645.00
2023-09-05T13:18:03.104Z,95649.00
2023-09-05T13:20:32.500Z,95649.40
2023-09-05T13:23:00.231Z,95649.80
2023-09-05T13:25:30.241Z,95645.40
2023-09-05T13:27:57.152Z,95637.60
2023-09-05T13:30:23.883Z,95633.40
2023-09-05T13:32:52.961Z,95634.80
2023-09-05T13:35:20.036Z,95636.80
2023-09-05T13:37:47.019Z,95637.00
2023-09-05T13:40:14.520Z,95635.20
2023-09-05T13:42:41.353Z,95641.20
2023-09-05T13:45:09.163Z,95634.40
2023-09-05T13:47:39.078Z,95638.00
2023-09-05T13:50:09.977Z,95635.60
2023-09-05T13:52:36.686Z,95629.20
2023-09-05T13:55:03.668Z,95632.60
2023-09-05T13:57:30.512Z,95628.60
2023-09-05T13:59:57.250Z,95624.20
2023-09-05T14:02:26.310Z,95619.80
2023-09-05T14:04:53.685Z,95619.60
2023-09-05T14:07:20.932Z,95619.60
2023-09-05T14:09:47.629Z,95625.20
2023-09-05T14:12:19.460Z,95623.20
2023-09-05T14:14:46.483Z,95624.40
2023-09-05T14:17:15.495Z,95624.00
2023-09-05T14:19:42.543Z,95619.40
2023-09-05T14:22:10.014Z,95625.00
2023-09-05T14:24:36.901Z,95630.20
2023-09-05T14:27:04.023Z,95630.00
2023-09-05T14:29:30.778Z,95635.40
2023-09-05T14:31:57.833Z,95635.60
2023-09-05T14:34:24.560Z,95635.20
2023-09-05T14:36:53.320Z,95638.20
2023-09-05T14:39:19.997Z,95627.80
2023-09-05T14:41:49.683Z,95618.40
2023-09-05T14:44:18.128Z,95616.00
2023-09-05T14:46:45.094Z,95619.40
2023-09-05T14:49:13.524Z,95617.60
2023-09-05T14:51:42.569Z,95619.60
2023-09-05T14:54:09.485Z,95616.60
2023-09-05T14:56:37.941Z,95622.20
2023-09-05T14:59:04.790Z,95620.60
2023-09-05T15:01:31.552Z,95619.60
2023-09-05T15:03:58.400Z,95617.00
2023-09-05T15:06:25.210Z,95615.60
2023-09-05T15:08:51.966Z,95615.80
2023-09-05T15:11:18.567Z,95613.80
2023-09-05T15:13:46.241Z,95612.20
2023-09-05T15:16:13.100Z,95610.20
2023-09-05T15:18:40.032Z,95609.20
2023-09-05T15:21:06.746Z,95616.20
2023-09-05T15:23:35.212Z,95612.80
2023-09-05T15:26:01.912Z,95608.40
2023-09-05T15:28:30.137Z,95616.60
2023-09-05T15:30:56.798Z,95616.60
2023-09-05T15:33:24.406Z,95625.00
2023-09-05T15:36:03.215Z,95628.60
2023-09-05T15:38:30.116Z,95628.00
2023-09-05T15:40:57.201Z,95623.40
2023-09-05T15:43:23.974Z,95628.20
2023-09-05T15:45:53.093Z,95632.60
2023-09-05T15:48:20.534Z,95633.80
2023-09-05T15:50:48.914Z,95630.40
2023-09-05T15:53:19.348Z,95628.80
2023-09-05T15:55:46.077Z,95633.60
2023-09-05T15:58:12.937Z,95627.00
2023-09-05T16:00:39.943Z,95622.60
2023-09-05T16:03:06.861Z,95622.80
2023-09-05T16:05:33.889Z,95629.40
2023-09-05T16:08:00.619Z,95631.60
2023-09-05T16:10:27.654Z,95632.80
2023-09-05T16:12:54.380Z,95625.40
2023-09-05T16:15:21.426Z,95628.60
2023-09-05T16:17:48.161Z,95630.60
2023-09-05T16:20:15.457Z,95633.60
2023-09-05T16:22:42.316Z,95633.40
2023-09-05T16:25:11.654Z,95632.60
2023-09-05T16:27:38.614Z,95639.80
2023-09-05T16:30:09.317Z,95640.20
2023-09-05T16:32:37.274Z,95642.40
2023-09-05T16:35:05.154Z,95645.20
2023-09-05T16:37:32.103Z,95649.20
2023-09-05T16:40:00.291Z,95649.80
2023-09-05T16:42:27.499Z,95646.00
2023-09-05T16:44:57.233Z,95646.00
2023-09-05T16:47:23.940Z,95640.80
2023-09-05T16:49:50.986Z,95643.20
2023-09-05T16:52:17.692Z,95640.40
2023-09-05T16:54:45.483Z,95644.00
2023-09-05T16:57:14.620Z,95644.60
2023-09-05T16:59:42.189Z,95646.60
2023-09-05T17:02:09.131Z,95649.00
2023-09-05T17:04:35.830Z,95652.40
2023-09-05T17:07:04.336Z,95650.40
2023-09-05T17:09:31.076Z,95650.00
2023-09-05T17:11:57.806Z,95651.20
2023-09-05T17:14:24.509Z,95649.60
2023-09-05T17:16:51.313Z,95650.60
2023-09-05T17:19:18.035Z,95653.60
2023-09-05T17:21:45.247Z,95648.20
2023-09-05T17:24:11.955Z,95653.20
2023-09-05T17:26:38.658Z,95655.20
2023-09-05T17:29:05.537Z,95656.60
2023-09-05T17:31:32.350Z,95655.80
2023-09-05T17:33:59.922Z,95659.80
2023-09-05T17:36:27.097Z,95667.60
2023-09-05T17:38:53.708Z,95668.40
2023-09-05T17:41:20.405Z,95672.60
2023-09-05T17:43:47.490Z,95670.20
2023-09-05T17:46:14.230Z,95671.20
2023-09-05T17:48:41.027Z,95673.80
2023-09-05T17:51:10.638Z,95677.60
2023-09-05T17:53:37.493Z,95679.00
2023-09-05T17:56:06.202Z,95677.60
2023-09-05T17:58:32.868Z,95681.20
2023-09-05T18:00:59.722Z,95688.80
2023-09-05T18:03:26.594Z,95694.60
2023-09-05T18:05:53.746Z,95690.40
2023-09-05T18:08:20.438Z,95694.40
2023-09-05T18:10:47.379Z,95699.60
2023-09-05T18:13:14.296Z,95700.80
2023-09-05T18:15:42.711Z,95698.40
2023-09-05T18:18:10.479Z,95695.20
2023-09-05T18:20:43.180Z,95696.20
2023-09-05T18:23:10.003Z,95700.00
2023-09-05T18:25:36.974Z,95701.00
2023-09-05T18:28:04.037Z,95697.60
2023-09-05T18:30:30.953Z,95705.20
2023-09-05T18:32:57.954Z,95709.40
2023-09-05T18:35:24.612Z,95710.80
2023-09-05T18:37:51.258Z,95706.80
2023-09-05T18:40:18.107Z,95711.00
2023-09-05T18:42:44.869Z,95707.80
2023-09-05T18:45:11.718Z,95706.80
2023-09-05T18:47:38.707Z,95710.00
2023-09-05T18:50:06.698Z,95708.40
2023-09-05T18:52:33.427Z,95709.80
2023-09-05T18:55:00.300Z,95704.80
2023-09-05T18:57:28.356Z,95708.40
2023-09-05T18:59:55.697Z,95708.40
2023-09-05T19:02:29.689Z,95704.60
2023-09-05T19:04:57.110Z,95705.40
2023-09-05T19:07:24.524Z,95706.60
2023-09-05T19:09:51.743Z,95701.60
2023-09-05T19:12:19.837Z,95699.40
2023-09-05T19:14:48.071Z,95702.60
2023-09-05T19:17:15.676Z,95702.80
2023-09-05T19:19:42.491Z,95709.40
2023-09-05T19:22:09.182Z,95705.60
2023-09-05T19:24:37.674Z,95710.20
2023-09-05T19:27:05.397Z,95704.20
2023-09-05T19:29:32.562Z,95706.00
2023-09-05T19:31:59.339Z,95699.20
2023-09-05T19:34:25.952Z,95696.80
2023-09-05T19:36:53.421Z,95694.40
2023-09-05T19:39:20.414Z,95691.40
2023-09-05T19:41:47.272Z,95693.40
2023-09-05T19:44:14.033Z,95693.00
2023-09-05T19:46:44.578Z,95688.60
2023-09-05T19:49:11.548Z,95688.80
2023-09-05T19:51:38.438Z,95688.00
2023-09-05T19:54:06.130Z,95684.40
2023-09-05T19:56:32.732Z,95684.40
2023-09-05T19:58:59.473Z,95681.60
2023-09-05T20:01:26.396Z,95682.40
2023-09-05T20:03:55.773Z,95678.20
2023-09-05T20:06:22.760Z,95681.00
2023-09-05T20:08:49.414Z,95676.80
2023-09-05T20:11:16.188Z,95674.20
2023-09-05T20:13:42.869Z,95671.00
2023-09-05T20:16:12.144Z,95673.40
2023-09-05T20:18:38.822Z,95679.40
2023-09-05T20:21:05.561Z,95688.40
2023-09-05T20:23:32.393Z,95683.00
2023-09-05T20:25:59.152Z,95683.80
2023-09-05T20:28:31.785Z,95685.00
2023-09-05T20:31:00.312Z,95683.40
2023-09-05T20:33:29.221Z,95676.00
2023-09-05T20:36:04.697Z,95673.60
2023-09-05T20:38:31.456Z,95673.80
2023-09-05T20:40:58.207Z,95672.80
2023-09-05T20:43:25.298Z,95665.60
2023-09-05T20:45:52.290Z,95664.20
2023-09-05T20:48:19.461Z,95669.60
2023-09-05T20:50:46.340Z,95667.80
2023-09-05T20:53:12.879Z,95669.40
2023-09-05T20:55:39.583Z,95670.80
2023-09-05T20:58:06.385Z,95672.40
2023-09-05T21:00:33.344Z,95674.80
2023-09-05T21:03:00.551Z,95669.60
2023-09-05T21:05:31.060Z,95666.80
2023-09-05T21:07:57.744Z,95667.80
2023-09-05T21:10:26.238Z,95667.20
2023-09-05T21:12:57.016Z,95657.20
2023-09-05T21:15:25.081Z,95661.80
2023-09-05T21:17:51.949Z,95665.00
2023-09-05T21:20:18.964Z,95662.00
2023-09-05T21:22:45.854Z,95659.00
2023-09-05T21:25:14.610Z,95666.60
2023-09-05T21:27:42.233Z,95667.60
2023-09-05T21:30:10.467Z,95670.80
2023-09-05T21:32:38.733Z,95666.00
2023-09-05T21:35:06.346Z,95664.00
2023-09-05T21:37:33.185Z,95657.80
2023-09-05T21:40:00.675Z,95656.60
2023-09-05T21:42:28.093Z,95660.60
2023-09-05T21:44:55.155Z,95659.60
2023-09-05T21:47:22.030Z,95660.60
2023-09-05T21:50:18.775Z,95657.40
2023-09-05T21:52:45.554Z,95658.20
2023-09-05T21:55:12.243Z,95661.20
2023-09-05T21:57:39.015Z,95660.20
2023-09-05T22:00:07.438Z,95654.80
2023-09-05T22:02:34.110Z,95653.00
2023-09-05T22:05:01.496Z,95650.00
2023-09-05T22:07:28.188Z,95654.20
2023-09-05T22:09:54.856Z,95652.60
2023-09-05T22:12:22.322Z,95650.80
2023-09-05T22:14:49.028Z,95652.40
2023-09-05T22:17:15.718Z,95649.40
2023-09-05T22:19:43.630Z,95647.00
2023-09-05T22:22:10.263Z,95653.00
2023-09-05T22:24:38.174Z,95650.80
2023-09-05T22:27:05.382Z,95647.00
2023-09-05T22:29:36.278Z,95640.80
2023-09-05T22:32:03.703Z,95643.00
2023-09-05T22:34:30.597Z,95638.60
2023-09-05T22:36:57.419Z,95636.80
2023-09-05T22:39:24.902Z,95631.60
2023-09-05T22:41:51.582Z,95631.20
2023-09-05T22:44:18.264Z,95630.40
2023-09-05T22:46:44.896Z,95634.60
2023-09-05T22:49:11.587Z,95640.80
2023-09-05T22:51:38.480Z,95645.60
2023-09-05T22:54:05.767Z,95650.80
2023-09-05T22:56:32.473Z,95652.40
2023-09-05T22:58:59.159Z,95651.80
2023-09-05T23:01:25.952Z,95647.80
2023-09-05T23:03:52.824Z,95647.20
2023-09-05T23:06:19.854Z,95649.40
2023-09-05T23:08:46.437Z,95648.80
2023-09-05T23:11:13.177Z,95646.80
2023-09-05T23:13:39.878Z,95649.00
2023-09-05T23:16:07.313Z,95652.40
2023-09-05T23:18:36.344Z,95646.60
2023-09-05T23:21:06.599Z,95644.60
2023-09-05T23:23:36.320Z,95641.80
2023-09-05T23:26:04.266Z,95644.80
2023-09-05T23:28:32.208Z,95647.20
2023-09-05T23:31:01.872Z,95647.00
2023-09-05T23:33:31.713Z,95649.00
2023-09-05T23:35:58.796Z,95648.80
2023-09-05T23:38:25.633Z,95645.00
2023-09-05T23:40:52.554Z,95644.00
2023-09-05T23:43:19.426Z,95645.00
2023-09-05T23:45:57.829Z,95648.20
2023-09-05T23:48:27.645Z,95649.00
2023-09-05T23:50:55.000Z,95653.40
2023-09-05T23:53:21.605Z,95652.40
2023-09-05T23:55:50.662Z,95646.20
2023-09-05T23:58:17.380Z,95647.60
